Time;durP1;ratioP1;P1;durP2;ratioP2;P2;SDS_P1;SDS_P2;PMS_P1;PMS_P2;Temp;Humidity;BMP_temperature;BMP_pressure;BME280_temperature;BME280_humidity;BME280_pressure;Samples;Min_cycle;Max_cycle;Signal;HPM_P1;HPM_P2
2023/01/29 00:01:49;;;;;;;;;;;21.50;32.40;;;;;;5094755;28;20010;-74
2023/01/29 00:04:15;;;;;;;;;;;21.40;32.40;;;;;;5112653;28;20306;-74
2023/01/29 00:06:40;;;;;;;;;;;21.40;32.40;;;;;;5128663;28;19923;-74
2023/01/29 00:09:06;;;;;;;;;;;21.40;32.70;;;;;;5128428;28;20370;-74
2023/01/29 00:11:31;;;;;;;;;;;21.40;33.20;;;;;;5128330;28;19919;-74
2023/01/29 00:13:57;;;;;;;;;;;21.50;32.50;;;;;;5128627;28;19924;-74
2023/01/29 00:16:22;;;;;;;;;;;21.40;33.20;;;;;;5094443;28;20282;-74
2023/01/29 00:18:51;;;;;;;;;;;21.40;32.40;;;;;;5112467;28;20434;-75
2023/01/29 00:21:18;;;;;;;;;;;21.50;32.50;;;;;;5128560;28;19967;-75
2023/01/29 00:23:44;;;;;;;;;;;21.50;32.80;;;;;;5112633;28;19924;-74
2023/01/29 00:26:09;;;;;;;;;;;21.50;32.40;;;;;;5093425;28;19942;-74
2023/01/29 00:28:35;;;;;;;;;;;21.50;32.40;;;;;;5112049;28;20033;-74
2023/01/29 00:33:49;;;;;;;;;;;21.50;32.40;;;;;;5110187;27;19912;-74
2023/01/29 00:36:15;;;;;;;;;;;21.60;32.40;;;;;;5109244;28;20440;-74
2023/01/29 00:38:41;;;;;;;;;;;21.60;32.50;;;;;;5109159;28;20329;-74
2023/01/29 00:46:32;;;;;;;;;;;21.60;32.30;;;;;;5088332;28;19920;-74
2023/01/29 00:48:58;;;;;;;;;;;21.60;32.30;;;;;;5088562;28;19928;-73
2023/01/29 00:51:23;;;;;;;;;;;21.60;32.30;;;;;;5088988;28;19920;-73
2023/01/29 00:53:49;;;;;;;;;;;21.60;32.30;;;;;;5105488;28;19924;-73
2023/01/29 00:56:14;;;;;;;;;;;21.70;32.30;;;;;;5088342;28;19924;-73
2023/01/29 00:58:40;;;;;;;;;;;21.60;33.00;;;;;;5089729;28;19928;-73
2023/01/29 01:01:05;;;;;;;;;;;21.60;32.30;;;;;;5089560;28;20287;-74
2023/01/29 01:03:33;;;;;;;;;;;21.60;32.30;;;;;;5088235;28;19925;-74
2023/01/29 01:06:04;;;;;;;;;;;21.60;32.30;;;;;;5088434;28;19932;-74
2023/01/29 01:11:17;;;;;;;;;;;21.70;32.30;;;;;;5088183;28;19920;-74
2023/01/29 01:13:43;;;;;;;;;;;21.60;32.30;;;;;;5088096;28;20398;-74
2023/01/29 01:16:12;;;;;;;;;;;21.70;32.30;;;;;;5087919;28;19924;-74
2023/01/29 01:18:37;;;;;;;;;;;21.60;32.30;;;;;;5088066;28;20379;-75
2023/01/29 01:21:03;;;;;;;;;;;21.60;32.30;;;;;;5088179;28;19926;-75
2023/01/29 01:23:28;;;;;;;;;;;21.60;32.30;;;;;;5087702;28;20346;-74
2023/01/29 01:25:54;;;;;;;;;;;21.60;32.30;;;;;;5087826;28;19970;-73
2023/01/29 01:28:20;;;;;;;;;;;21.60;32.30;;;;;;5088120;28;19924;-74
2023/01/29 01:30:45;;;;;;;;;;;21.60;32.30;;;;;;5087804;28;20355;-74
2023/01/29 01:33:11;;;;;;;;;;;21.60;32.30;;;;;;5104938;28;19924;-74
2023/01/29 01:35:37;;;;;;;;;;;21.60;32.30;;;;;;5087919;28;20322;-74
2023/01/29 01:38:03;;;;;;;;;;;21.60;32.30;;;;;;5088855;28;19920;-74
2023/01/29 01:40:31;;;;;;;;;;;21.60;32.30;;;;;;5087847;28;20352;-74
2023/01/29 01:42:59;;;;;;;;;;;21.60;32.40;;;;;;5087178;28;19932;-74
2023/01/29 01:45:26;;;;;;;;;;;21.60;32.30;;;;;;5087755;28;20152;-74
2023/01/29 01:47:55;;;;;;;;;;;21.50;32.30;;;;;;5087377;28;19920;-74
2023/01/29 01:50:23;;;;;;;;;;;21.60;32.30;;;;;;5087953;28;20054;-74
2023/01/29 01:52:51;;;;;;;;;;;21.60;32.40;;;;;;5087011;28;19932;-73
2023/01/29 01:55:21;;;;;;;;;;;21.60;32.30;;;;;;5073657;28;19920;-73
2023/01/29 01:57:49;;;;;;;;;;;21.60;32.40;;;;;;5073707;28;19921;-73
2023/01/29 02:00:16;;;;;;;;;;;21.60;32.30;;;;;;5074028;28;19975;-74
2023/01/29 02:11:06;;;;;;;;;;;21.60;32.40;;;;;;5073675;28;19920;-74
2023/01/29 02:13:32;;;;;;;;;;;21.60;32.30;;;;;;5073736;28;20378;-75
2023/01/29 02:15:57;;;;;;;;;;;21.60;32.30;;;;;;5073881;28;20390;-75
2023/01/29 02:18:23;;;;;;;;;;;21.70;32.40;;;;;;5074826;28;19920;-74
2023/01/29 02:20:59;;;;;;;;;;;21.70;32.30;;;;;;5073378;28;20027;-74
2023/01/29 02:26:24;;;;;;;;;;;21.70;32.30;;;;;;5090117;28;19938;-74
2023/01/29 02:31:43;;;;;;;;;;;21.70;32.20;;;;;;5130780;27;20451;-74
2023/01/29 02:44:54;;;;;;;;;;;21.70;32.30;;;;;;5110075;27;19919;-74
2023/01/29 02:47:25;;;;;;;;;;;21.70;32.20;;;;;;5108903;28;20379;-74
2023/01/29 02:50:02;;;;;;;;;;;21.70;32.20;;;;;;5108056;28;20015;-74
2023/01/29 02:52:35;;;;;;;;;;;21.70;32.20;;;;;;5109123;28;19920;-74
2023/01/29 02:55:07;;;;;;;;;;;21.80;32.20;;;;;;5109108;28;20681;-73
2023/01/29 02:57:35;;;;;;;;;;;21.70;32.20;;;;;;5109099;28;19920;-73
2023/01/29 03:00:07;;;;;;;;;;;21.70;32.20;;;;;;5108527;28;20371;-73
2023/01/29 03:02:53;;;;;;;;;;;21.70;32.20;;;;;;5108506;28;19920;-74
2023/01/29 03:05:23;;;;;;;;;;;21.70;32.30;;;;;;5108373;28;20383;-74
2023/01/29 03:07:52;;;;;;;;;;;21.70;32.30;;;;;;5108864;28;19939;-74
2023/01/29 03:10:20;;;;;;;;;;;21.70;32.30;;;;;;5108719;28;19965;-74
2023/01/29 03:12:49;;;;;;;;;;;21.70;32.30;;;;;;5108427;28;20006;-74
2023/01/29 03:15:23;;;;;;;;;;;21.60;32.30;;;;;;5107582;28;20375;-74
2023/01/29 03:17:53;;;;;;;;;;;21.60;32.30;;;;;;5108539;28;19977;-74
2023/01/29 03:20:24;;;;;;;;;;;21.60;32.40;;;;;;5108341;28;19924;-75
2023/01/29 03:22:51;;;;;;;;;;;21.60;32.40;;;;;;5108443;28;19931;-74
2023/01/29 03:33:41;;;;;;;;;;;21.40;32.60;;;;;;5108216;28;19927;-74
2023/01/29 03:36:10;;;;;;;;;;;21.40;32.70;;;;;;5107495;28;19990;-74
2023/01/29 03:38:36;;;;;;;;;;;21.40;32.60;;;;;;5109249;28;19927;-74
2023/01/29 03:41:04;;;;;;;;;;;21.40;32.70;;;;;;5107846;28;19920;-74
2023/01/29 03:46:21;;;;;;;;;;;21.40;32.70;;;;;;5086242;27;1864620;-74
2023/01/29 03:48:55;;;;;;;;;;;21.40;32.70;;;;;;5133245;27;19923;-74
2023/01/29 03:51:27;;;;;;;;;;;21.40;32.70;;;;;;5133228;27;19943;-74
2023/01/29 03:53:57;;;;;;;;;;;21.40;32.60;;;;;;5133050;27;20442;-73
2023/01/29 03:56:43;;;;;;;;;;;21.40;32.60;;;;;;5133043;27;20000;-74
2023/01/29 04:01:58;;;;;;;;;;;21.50;32.70;;;;;;5110168;27;19912;-74
2023/01/29 04:04:27;;;;;;;;;;;21.50;32.60;;;;;;5108929;28;19926;-74
2023/01/29 04:06:59;;;;;;;;;;;21.50;32.60;;;;;;5110144;28;20299;-74
2023/01/29 04:09:30;;;;;;;;;;;21.50;32.60;;;;;;5109220;28;19920;-74
2023/01/29 04:12:02;;;;;;;;;;;21.50;32.60;;;;;;5108804;28;19974;-74
2023/01/29 04:14:28;;;;;;;;;;;21.60;32.60;;;;;;5109068;28;19928;-74
2023/01/29 04:16:56;;;;;;;;;;;21.60;32.50;;;;;;5108358;28;19928;-74
2023/01/29 04:19:22;;;;;;;;;;;21.60;32.50;;;;;;5108849;28;20283;-75
2023/01/29 04:21:49;;;;;;;;;;;21.60;32.50;;;;;;5108504;28;20407;-74
2023/01/29 04:24:15;;;;;;;;;;;21.60;32.50;;;;;;5109776;28;19920;-74
2023/01/29 04:29:46;;;;;;;;;;;21.60;32.50;;;;;;5127730;27;1863092;-74
2023/01/29 04:37:41;;;;;;;;;;;21.70;32.50;;;;;;5110334;27;19912;-74
2023/01/29 04:40:17;;;;;;;;;;;21.60;32.40;;;;;;5109212;28;19928;-74
2023/01/29 04:51:08;;;;;;;;;;;21.50;32.40;;;;;;5110240;27;20030;-73
2023/01/29 04:53:43;;;;;;;;;;;21.60;32.50;;;;;;5109153;28;19920;-74
2023/01/29 04:56:28;;;;;;;;;;;21.60;32.50;;;;;;5109245;28;20356;-73
2023/01/29 04:58:58;;;;;;;;;;;21.60;32.50;;;;;;5108666;28;19926;-74
2023/01/29 05:01:28;;;;;;;;;;;21.60;32.50;;;;;;5109155;28;19924;-74
2023/01/29 05:03:54;;;;;;;;;;;21.60;32.50;;;;;;5108962;28;19920;-74
2023/01/29 05:06:21;;;;;;;;;;;21.60;32.60;;;;;;5108771;28;19924;-75
2023/01/29 05:08:50;;;;;;;;;;;21.60;32.50;;;;;;5108866;28;19924;-74
2023/01/29 05:11:17;;;;;;;;;;;21.70;32.60;;;;;;5108650;28;19926;-74
2023/01/29 05:13:42;;;;;;;;;;;21.60;32.50;;;;;;5108639;28;20409;-74
2023/01/29 05:18:47;;;;;;;;;;;21.50;32.50;;;;;;5129557;27;1864530;-75
2023/01/29 05:21:12;;;;;;;;;;;21.50;32.50;;;;;;5193466;27;19919;-75
2023/01/29 05:23:38;;;;;;;;;;;21.50;32.50;;;;;;5174632;27;19973;-74
2023/01/29 05:26:04;;;;;;;;;;;21.50;32.60;;;;;;5174446;27;20331;-74
2023/01/29 05:28:29;;;;;;;;;;;21.60;32.60;;;;;;5174526;27;19918;-74
2023/01/29 05:30:55;;;;;;;;;;;21.50;32.60;;;;;;5174582;27;20350;-74
2023/01/29 05:33:22;;;;;;;;;;;21.50;32.50;;;;;;5174452;27;20485;-74
2023/01/29 05:35:48;;;;;;;;;;;21.50;32.50;;;;;;5174540;27;19918;-74
2023/01/29 05:38:14;;;;;;;;;;;21.60;32.60;;;;;;5174069;27;20033;-74
2023/01/29 05:40:40;;;;;;;;;;;21.60;32.60;;;;;;5174305;27;20051;-74
2023/01/29 05:43:12;;;;;;;;;;;21.60;32.60;;;;;;5174083;27;19922;-73
2023/01/29 05:45:38;;;;;;;;;;;21.50;32.60;;;;;;5174180;27;20017;-74
2023/01/29 05:48:03;;;;;;;;;;;21.60;32.70;;;;;;5174230;27;20021;-74
2023/01/29 05:50:30;;;;;;;;;;;21.50;32.60;;;;;;5171576;27;20284;-74
2023/01/29 05:52:56;;;;;;;;;;;21.60;33.50;;;;;;5152792;27;20014;-73
2023/01/29 05:55:26;;;;;;;;;;;21.50;32.60;;;;;;5152847;27;19926;-74
2023/01/29 05:57:51;;;;;;;;;;;21.50;32.60;;;;;;5152712;27;19930;-74
2023/01/29 06:00:17;;;;;;;;;;;21.60;32.60;;;;;;5152875;27;19919;-75
2023/01/29 06:02:43;;;;;;;;;;;21.60;32.70;;;;;;5171367;27;19919;-75
2023/01/29 06:05:08;;;;;;;;;;;21.60;32.60;;;;;;5152679;27;19923;-75
2023/01/29 06:07:35;;;;;;;;;;;21.60;32.60;;;;;;5152687;27;19970;-74
2023/01/29 06:10:00;;;;;;;;;;;21.60;32.50;;;;;;5152999;27;19923;-75
2023/01/29 06:12:26;;;;;;;;;;;21.70;32.50;;;;;;5171411;27;19926;-74
2023/01/29 06:14:52;;;;;;;;;;;21.70;32.50;;;;;;5152773;27;20353;-74
2023/01/29 06:17:17;;;;;;;;;;;21.60;32.40;;;;;;5170871;27;19923;-75
2023/01/29 06:19:43;;;;;;;;;;;21.60;32.50;;;;;;5171093;27;19926;-75
2023/01/29 06:22:08;;;;;;;;;;;21.60;32.40;;;;;;5152390;27;19919;-75
2023/01/29 06:24:34;;;;;;;;;;;21.70;32.50;;;;;;5152333;27;19923;-74
2023/01/29 06:27:02;;;;;;;;;;;21.70;32.50;;;;;;5152197;27;19919;-75
2023/01/29 06:29:27;;;;;;;;;;;21.60;32.40;;;;;;5142547;27;19926;-74
2023/01/29 06:31:53;;;;;;;;;;;21.70;32.40;;;;;;5138564;27;19919;-74
2023/01/29 06:34:18;;;;;;;;;;;21.60;32.40;;;;;;5138614;27;19926;-74
2023/01/29 06:36:44;;;;;;;;;;;21.70;32.50;;;;;;5138179;27;19930;-74
2023/01/29 06:39:10;;;;;;;;;;;21.70;32.40;;;;;;5138174;27;19923;-74
2023/01/29 06:41:35;;;;;;;;;;;21.70;32.50;;;;;;5138140;27;19919;-73
2023/01/29 06:44:01;;;;;;;;;;;21.70;32.40;;;;;;5138161;27;19927;-73
2023/01/29 06:46:26;;;;;;;;;;;21.70;32.50;;;;;;5138073;27;19919;-73
2023/01/29 06:48:52;;;;;;;;;;;21.70;32.50;;;;;;5137243;27;19919;-74
2023/01/29 06:51:17;;;;;;;;;;;21.60;32.40;;;;;;5137751;27;19919;-74
2023/01/29 06:53:43;;;;;;;;;;;21.70;32.40;;;;;;5137933;27;19925;-74
2023/01/29 06:56:08;;;;;;;;;;;21.60;32.40;;;;;;5156582;27;19919;-74
2023/01/29 06:58:35;;;;;;;;;;;21.70;32.50;;;;;;5137853;27;19927;-74
2023/01/29 07:01:02;;;;;;;;;;;21.70;32.50;;;;;;5156491;27;19931;-74
2023/01/29 07:03:34;;;;;;;;;;;21.60;32.50;;;;;;5137973;27;19919;-74
2023/01/29 07:06:00;;;;;;;;;;;21.60;32.40;;;;;;5138096;27;19919;-74
2023/01/29 07:08:26;;;;;;;;;;;21.60;32.50;;;;;;5137646;27;20411;-74
2023/01/29 07:10:52;;;;;;;;;;;21.60;32.50;;;;;;5156242;27;19979;-74
2023/01/29 07:13:17;;;;;;;;;;;21.50;32.50;;;;;;5137867;27;20336;-74
2023/01/29 07:15:43;;;;;;;;;;;21.50;32.60;;;;;;5137617;27;19919;-75
2023/01/29 07:18:12;;;;;;;;;;;21.50;32.60;;;;;;5155684;27;19923;-75
2023/01/29 07:20:38;;;;;;;;;;;21.40;32.60;;;;;;5137748;27;19923;-74
2023/01/29 07:23:05;;;;;;;;;;;21.40;32.70;;;;;;5136572;27;19964;-74
2023/01/29 07:25:31;;;;;;;;;;;21.40;32.70;;;;;;5137250;27;19930;-74
2023/01/29 07:27:59;;;;;;;;;;;21.40;32.80;;;;;;5137493;27;19919;-74
2023/01/29 07:30:24;;;;;;;;;;;21.40;32.90;;;;;;5137611;27;19919;-75
2023/01/29 07:32:50;;;;;;;;;;;21.30;32.90;;;;;;5137439;27;20385;-74
2023/01/29 07:35:15;;;;;;;;;;;21.40;33.00;;;;;;5137362;27;20293;-74
2023/01/29 07:37:41;;;;;;;;;;;21.30;32.90;;;;;;5155784;27;19930;-74
2023/01/29 07:40:10;;;;;;;;;;;21.30;32.90;;;;;;5135845;27;20432;-74
2023/01/29 07:42:40;;;;;;;;;;;21.30;32.90;;;;;;5136988;27;19919;-74
2023/01/29 07:45:07;;;;;;;;;;;21.40;33.00;;;;;;5155983;27;20254;-73
2023/01/29 07:47:32;;;;;;;;;;;21.40;32.90;;;;;;5136956;27;19926;-74
2023/01/29 07:49:58;;;;;;;;;;;21.40;32.90;;;;;;5136985;27;19919;-74
2023/01/29 07:52:23;;;;;;;;;;;21.40;32.90;;;;;;5137134;27;19919;-74
2023/01/29 07:54:49;;;;;;;;;;;21.50;32.80;;;;;;5137058;27;19919;-74
2023/01/29 07:57:14;;;;;;;;;;;21.40;32.80;;;;;;5135995;27;20412;-73
2023/01/29 07:59:40;;;;;;;;;;;21.50;32.80;;;;;;5154982;27;19930;-74
2023/01/29 08:02:05;;;;;;;;;;;21.50;32.80;;;;;;5136675;27;19926;-75
2023/01/29 08:04:34;;;;;;;;;;;21.50;32.80;;;;;;5136702;27;19919;-74
2023/01/29 08:06:59;;;;;;;;;;;21.50;32.70;;;;;;5155171;27;19926;-74
2023/01/29 08:09:25;;;;;;;;;;;21.50;32.70;;;;;;5136532;27;20005;-74
2023/01/29 08:11:50;;;;;;;;;;;21.50;32.70;;;;;;5136795;27;19979;-74
2023/01/29 08:14:16;;;;;;;;;;;21.60;32.70;;;;;;5135539;27;19919;-74
2023/01/29 08:16:41;;;;;;;;;;;21.60;32.70;;;;;;5155272;27;19992;-74
2023/01/29 08:19:07;;;;;;;;;;;21.60;32.70;;;;;;5154588;27;19923;-75
2023/01/29 08:21:32;;;;;;;;;;;21.60;32.70;;;;;;5154857;27;19926;-74
2023/01/29 08:23:58;;;;;;;;;;;21.50;32.70;;;;;;5136549;27;19923;-74
2023/01/29 08:26:25;;;;;;;;;;;21.60;32.60;;;;;;5136521;27;20173;-75
2023/01/29 08:28:53;;;;;;;;;;;21.60;32.70;;;;;;5136094;27;19927;-74
2023/01/29 08:31:19;;;;;;;;;;;21.60;32.60;;;;;;5136016;27;20122;-74
2023/01/29 08:33:45;;;;;;;;;;;21.60;32.60;;;;;;5154584;27;19926;-74
2023/01/29 08:36:10;;;;;;;;;;;21.60;32.60;;;;;;5136199;27;20013;-74
2023/01/29 08:38:36;;;;;;;;;;;21.60;32.60;;;;;;5135918;27;19923;-73
2023/01/29 08:41:02;;;;;;;;;;;21.60;32.70;;;;;;5135852;27;19926;-73
2023/01/29 08:43:30;;;;;;;;;;;21.60;32.60;;;;;;5135918;27;19919;-73
2023/01/29 08:45:56;;;;;;;;;;;21.60;32.70;;;;;;5146568;27;19967;-73
2023/01/29 08:48:22;;;;;;;;;;;21.60;32.70;;;;;;5156569;27;19920;-74
2023/01/29 08:50:47;;;;;;;;;;;21.60;32.70;;;;;;5156397;27;19919;-74
2023/01/29 08:53:13;;;;;;;;;;;21.50;32.60;;;;;;5156558;27;19949;-74
2023/01/29 08:55:39;;;;;;;;;;;21.60;32.70;;;;;;5156398;27;19925;-74
2023/01/29 08:58:05;;;;;;;;;;;21.50;32.60;;;;;;5175213;27;20333;-73
2023/01/29 09:00:31;;;;;;;;;;;21.50;32.60;;;;;;5156630;27;20366;-74
2023/01/29 09:02:58;;;;;;;;;;;21.50;32.60;;;;;;5156756;27;20293;-74
2023/01/29 09:05:24;;;;;;;;;;;21.60;32.60;;;;;;5172663;27;20010;-74
2023/01/29 09:07:49;;;;;;;;;;;21.60;32.60;;;;;;5135751;27;20007;-74
2023/01/29 09:10:15;;;;;;;;;;;21.60;32.60;;;;;;5154274;27;20406;-73
2023/01/29 09:12:41;;;;;;;;;;;21.60;32.50;;;;;;5135831;27;19972;-74
2023/01/29 09:15:07;;;;;;;;;;;21.60;32.50;;;;;;5135564;27;20014;-74
2023/01/29 09:17:32;;;;;;;;;;;21.60;32.50;;;;;;5135145;27;19930;-75
2023/01/29 09:19:58;;;;;;;;;;;21.60;32.50;;;;;;5154036;27;19940;-74
2023/01/29 09:22:23;;;;;;;;;;;21.70;32.50;;;;;;5135554;27;19945;-74
2023/01/29 09:24:49;;;;;;;;;;;21.70;32.50;;;;;;5153987;27;20392;-73
2023/01/29 09:27:17;;;;;;;;;;;21.70;32.50;;;;;;5154030;27;19925;-73
2023/01/29 09:29:43;;;;;;;;;;;21.70;32.50;;;;;;5135624;27;19962;-73
2023/01/29 09:32:08;;;;;;;;;;;21.60;32.40;;;;;;5135648;27;20431;-73
2023/01/29 09:34:34;;;;;;;;;;;21.70;32.50;;;;;;5135651;27;20392;-74
2023/01/29 09:37:00;;;;;;;;;;;21.60;32.50;;;;;;5135379;27;19923;-73
2023/01/29 09:39:25;;;;;;;;;;;21.60;32.50;;;;;;5135614;27;20382;-73
2023/01/29 09:47:32;;;;;;;;;;;21.60;32.50;;;;;;5089710;28;19912;-73
2023/01/29 09:50:00;;;;;;;;;;;21.50;32.40;;;;;;5090052;28;19924;-73
2023/01/29 09:52:31;;;;;;;;;;;21.60;32.50;;;;;;5105456;28;19955;-73
2023/01/29 10:14:11;;;;;;;;;;;21.40;32.80;;;;;;5110288;27;20300;-73
2023/01/29 10:16:42;;;;;;;;;;;21.30;32.70;;;;;;5108722;28;19963;-73
2023/01/29 10:19:11;;;;;;;;;;;21.40;32.80;;;;;;5108788;28;19924;-74
2023/01/29 10:27:33;;;;;;;;;;;21.40;32.90;;;;;;5130645;27;20089;-73
2023/01/29 10:30:01;;;;;;;;;;;21.50;32.90;;;;;;5130741;27;20342;-73
2023/01/29 10:32:28;;;;;;;;;;;21.40;32.80;;;;;;5130778;27;19926;-74
2023/01/29 10:37:40;;;;;;;;;;;21.40;32.80;;;;;;5125536;27;1921992;-74
2023/01/29 10:40:26;;;;;;;;;;;21.40;32.70;;;;;;5174569;27;19987;-74
2023/01/29 10:42:56;;;;;;;;;;;21.40;32.70;;;;;;5174511;27;19919;-73
2023/01/29 10:48:24;;;;;;;;;;;21.40;32.70;;;;;;5110375;27;19912;-73
2023/01/29 10:50:57;;;;;;;;;;;21.60;32.70;;;;;;5108676;28;19924;-73
2023/01/29 11:01:25;;;;;;;;;;;21.60;32.60;;;;;;5127587;27;1865557;-73
2023/01/29 11:03:55;;;;;;;;;;;21.50;32.50;;;;;;5174769;27;19927;-74
2023/01/29 11:06:22;;;;;;;;;;;21.50;32.60;;;;;;5174691;27;19941;-73
2023/01/29 11:08:58;;;;;;;;;;;21.60;32.60;;;;;;5174465;27;19922;-73
2023/01/29 11:11:32;;;;;;;;;;;21.50;32.50;;;;;;5174489;27;19956;-73
2023/01/29 11:13:59;;;;;;;;;;;21.60;32.60;;;;;;5174346;27;19924;-74
2023/01/29 11:16:26;;;;;;;;;;;21.50;32.60;;;;;;5174192;27;19922;-73
2023/01/29 11:21:48;;;;;;;;;;;21.50;32.60;;;;;;5089121;28;19913;-74
2023/01/29 11:24:16;;;;;;;;;;;21.50;32.50;;;;;;5089856;28;20106;-73
2023/01/29 11:26:43;;;;;;;;;;;21.60;32.60;;;;;;5088568;28;19921;-78
2023/01/29 11:29:28;;;;;;;;;;;21.50;32.60;;;;;;5088109;28;19920;-73
2023/01/29 11:31:55;;;;;;;;;;;21.60;32.60;;;;;;5088283;28;19973;-74
2023/01/29 11:34:21;;;;;;;;;;;21.60;32.60;;;;;;5089045;28;19920;-74
2023/01/29 11:36:58;;;;;;;;;;;21.60;32.60;;;;;;5088250;28;20445;-74
2023/01/29 11:39:26;;;;;;;;;;;21.60;32.50;;;;;;5089365;28;19971;-74
2023/01/29 11:41:52;;;;;;;;;;;21.60;32.50;;;;;;5088701;28;19920;-73
2023/01/29 11:44:23;;;;;;;;;;;21.70;32.50;;;;;;5088582;28;20257;-73
2023/01/29 11:46:48;;;;;;;;;;;21.70;32.50;;;;;;5088385;28;19995;-73
2023/01/29 11:49:21;;;;;;;;;;;21.70;32.50;;;;;;5089451;28;20348;-73
2023/01/29 11:51:50;;;;;;;;;;;21.70;32.50;;;;;;5088020;28;19921;-73
2023/01/29 11:54:16;;;;;;;;;;;21.60;32.40;;;;;;5088360;28;19920;-74
2023/01/29 11:56:44;;;;;;;;;;;21.70;32.50;;;;;;5089184;28;19927;-73
2023/01/29 11:59:30;;;;;;;;;;;21.70;32.50;;;;;;5089199;28;20015;-73
2023/01/29 12:02:02;;;;;;;;;;;21.60;32.40;;;;;;5087828;28;20325;-73
2023/01/29 12:04:28;;;;;;;;;;;21.60;32.40;;;;;;5087824;28;19921;-73
2023/01/29 12:06:54;;;;;;;;;;;21.60;32.40;;;;;;5087852;28;19927;-73
2023/01/29 12:09:22;;;;;;;;;;;21.70;32.50;;;;;;5088082;28;19921;-74
2023/01/29 12:11:47;;;;;;;;;;;21.60;32.50;;;;;;5088040;28;19920;-73
2023/01/29 12:14:32;;;;;;;;;;;21.70;32.60;;;;;;5087660;28;20435;-74
2023/01/29 12:17:03;;;;;;;;;;;21.60;32.50;;;;;;5087814;28;20402;-74
2023/01/29 12:19:35;;;;;;;;;;;21.70;33.30;;;;;;5087291;28;19931;-74
2023/01/29 12:24:48;;;;;;;;;;;21.50;32.50;;;;;;5110778;27;19912;-73
2023/01/29 12:27:18;;;;;;;;;;;21.40;32.50;;;;;;5108834;28;19931;-73
2023/01/29 12:29:45;;;;;;;;;;;21.50;32.60;;;;;;5109171;28;19931;-73
2023/01/29 12:32:18;;;;;;;;;;;21.50;32.80;;;;;;5108810;28;19924;-73
2023/01/29 12:34:48;;;;;;;;;;;21.40;32.80;;;;;;5143489;27;19931;-73
2023/01/29 12:39:57;;;;;;;;;;;21.40;32.90;;;;;;5110279;27;20279;-73
2023/01/29 12:42:23;;;;;;;;;;;21.40;32.90;;;;;;5109214;28;20215;-73
2023/01/29 12:50:20;;;;;;;;;;;21.40;32.90;;;;;;5130779;27;20081;-74
2023/01/29 12:52:54;;;;;;;;;;;21.40;32.90;;;;;;5112813;28;19970;-73
2023/01/29 12:55:23;;;;;;;;;;;21.40;32.90;;;;;;5112243;28;20381;-74
2023/01/29 12:57:56;;;;;;;;;;;21.40;32.90;;;;;;5112224;28;19954;-73
2023/01/29 13:00:25;;;;;;;;;;;21.40;32.90;;;;;;5130680;28;20294;-73
2023/01/29 13:02:58;;;;;;;;;;;21.40;32.90;;;;;;5112081;28;20371;-73
2023/01/29 13:05:26;;;;;;;;;;;21.40;32.90;;;;;;5100329;28;19920;-74
2023/01/29 13:08:09;;;;;;;;;;;21.40;32.90;;;;;;5091422;28;19950;-73
2023/01/29 13:10:37;;;;;;;;;;;21.40;32.90;;;;;;5109846;28;19920;-73
2023/01/29 13:13:11;;;;;;;;;;;21.40;32.90;;;;;;5109862;28;19920;-73
2023/01/29 13:15:38;;;;;;;;;;;21.50;32.90;;;;;;5091535;28;19949;-73
2023/01/29 13:20:51;;;;;;;;;;;21.40;32.80;;;;;;5110336;27;19918;-73
2023/01/29 13:23:21;;;;;;;;;;;21.50;32.80;;;;;;5108974;28;19920;-74
2023/01/29 13:25:51;;;;;;;;;;;21.50;32.80;;;;;;5108852;28;19920;-73
2023/01/29 13:28:21;;;;;;;;;;;21.50;32.80;;;;;;5109077;28;19920;-73
2023/01/29 13:31:06;;;;;;;;;;;21.50;32.90;;;;;;5108783;28;19960;-73
2023/01/29 13:33:32;;;;;;;;;;;21.50;32.80;;;;;;5108639;28;19920;-73
2023/01/29 13:35:58;;;;;;;;;;;21.40;32.80;;;;;;5108666;28;19926;-73
2023/01/29 13:38:25;;;;;;;;;;;21.50;32.80;;;;;;5108612;28;19950;-73
2023/01/29 13:40:53;;;;;;;;;;;21.50;32.80;;;;;;5108581;28;19927;-74
2023/01/29 13:43:23;;;;;;;;;;;21.50;32.80;;;;;;5108971;28;19927;-73
2023/01/29 13:45:50;;;;;;;;;;;21.50;32.90;;;;;;5108456;28;19972;-73
2023/01/29 13:48:25;;;;;;;;;;;21.50;32.90;;;;;;5108889;28;19989;-73
2023/01/29 13:50:55;;;;;;;;;;;21.50;32.90;;;;;;5109679;28;19923;-73
2023/01/29 13:53:23;;;;;;;;;;;21.40;32.90;;;;;;5109674;28;19924;-73
2023/01/29 13:55:49;;;;;;;;;;;21.50;33.00;;;;;;5109572;28;19925;-73
2023/01/29 13:58:16;;;;;;;;;;;21.40;32.90;;;;;;5109273;28;20054;-73
2023/01/29 14:06:06;;;;;;;;;;;21.50;32.90;;;;;;5130728;27;19981;-73
2023/01/29 14:13:56;;;;;;;;;;;21.50;32.90;;;;;;5051278;27;1865593;-73
2023/01/29 14:19:02;;;;;;;;;;;21.50;32.80;;;;;;5110277;27;20403;-76
2023/01/29 14:21:30;;;;;;;;;;;21.60;32.90;;;;;;5108832;28;20355;-73
2023/01/29 14:29:19;;;;;;;;;;;21.60;32.90;;;;;;5089937;28;19912;-73
2023/01/29 14:32:04;;;;;;;;;;;21.50;32.80;;;;;;5105864;28;19921;-73
2023/01/29 14:34:50;;;;;;;;;;;21.60;32.80;;;;;;5088390;28;19920;-73
2023/01/29 14:43:06;;;;;;;;;;;21.50;32.80;;;;;;5089897;28;19916;-73
2023/01/29 14:45:33;;;;;;;;;;;21.50;32.80;;;;;;5088495;28;19959;-73
2023/01/29 14:48:00;;;;;;;;;;;21.60;32.90;;;;;;5087744;28;19924;-73
2023/01/29 14:56:03;;;;;;;;;;;21.60;32.90;;;;;;5089838;28;19912;-73
2023/01/29 15:01:36;;;;;;;;;;;21.50;32.90;;;;;;5110255;27;19919;-73
2023/01/29 15:04:13;;;;;;;;;;;21.40;32.90;;;;;;5108653;28;19924;-73
2023/01/29 15:06:42;;;;;;;;;;;21.40;33.00;;;;;;5109178;28;19942;-74
2023/01/29 15:09:13;;;;;;;;;;;21.40;33.10;;;;;;5108845;28;19919;-73
2023/01/29 15:11:46;;;;;;;;;;;21.40;33.10;;;;;;5110279;28;19974;-74
2023/01/29 15:14:22;;;;;;;;;;;21.30;33.10;;;;;;5109043;28;19965;-73
2023/01/29 15:16:59;;;;;;;;;;;21.30;33.20;;;;;;5108701;28;19924;-74
2023/01/29 15:19:27;;;;;;;;;;;21.30;33.20;;;;;;5107984;28;19924;-74
2023/01/29 15:22:12;;;;;;;;;;;21.30;33.20;;;;;;5108795;28;19927;-74
2023/01/29 15:24:39;;;;;;;;;;;21.20;33.20;;;;;;5109661;28;19931;-73
2023/01/29 15:27:05;;;;;;;;;;;21.20;33.30;;;;;;5109267;28;20321;-73
2023/01/29 15:29:31;;;;;;;;;;;21.20;33.30;;;;;;5108182;28;19969;-73
2023/01/29 15:31:57;;;;;;;;;;;21.20;33.30;;;;;;5108379;28;19920;-73
2023/01/29 15:34:23;;;;;;;;;;;21.30;33.40;;;;;;5109900;28;20337;-74
2023/01/29 15:36:49;;;;;;;;;;;21.30;33.40;;;;;;5107866;28;19965;-74
2023/01/29 15:39:15;;;;;;;;;;;21.30;33.40;;;;;;5107974;28;20026;-74
2023/01/29 15:41:42;;;;;;;;;;;21.20;33.30;;;;;;5108269;28;19927;-73
2023/01/29 15:44:12;;;;;;;;;;;21.30;33.40;;;;;;5108167;28;19920;-74
2023/01/29 15:46:40;;;;;;;;;;;21.30;33.40;;;;;;5108378;28;19924;-74
2023/01/29 15:49:08;;;;;;;;;;;21.30;33.30;;;;;;5108388;28;19920;-74
2023/01/29 15:51:33;;;;;;;;;;;21.30;33.30;;;;;;5109307;28;19927;-73
2023/01/29 15:54:01;;;;;;;;;;;21.30;33.20;;;;;;5108299;28;19920;-74
2023/01/29 15:56:29;;;;;;;;;;;21.40;33.30;;;;;;5107333;28;19920;-73
2023/01/29 15:58:56;;;;;;;;;;;21.40;33.20;;;;;;5107732;28;19920;-73
2023/01/29 16:01:24;;;;;;;;;;;21.40;33.20;;;;;;5107791;28;19920;-74
2023/01/29 16:03:50;;;;;;;;;;;21.40;33.20;;;;;;5107754;28;19919;-73
2023/01/29 16:06:16;;;;;;;;;;;21.40;33.20;;;;;;5109050;28;19981;-74
2023/01/29 16:08:42;;;;;;;;;;;21.40;33.20;;;;;;5109134;28;19967;-73
2023/01/29 16:11:08;;;;;;;;;;;21.50;33.20;;;;;;5102659;28;20315;-73
2023/01/29 16:13:35;;;;;;;;;;;21.50;33.20;;;;;;5094371;28;20019;-73
2023/01/29 16:16:03;;;;;;;;;;;21.50;33.20;;;;;;5093829;28;20385;-75
2023/01/29 16:18:34;;;;;;;;;;;21.50;33.10;;;;;;5094283;28;19919;-75
2023/01/29 16:21:04;;;;;;;;;;;21.50;33.10;;;;;;5093989;28;19931;-74
2023/01/29 16:23:36;;;;;;;;;;;21.50;33.10;;;;;;5093929;28;19920;-74
2023/01/29 16:26:04;;;;;;;;;;;21.50;33.10;;;;;;5095117;28;20014;-74
2023/01/29 16:28:30;;;;;;;;;;;21.50;33.10;;;;;;5095002;28;19920;-73
2023/01/29 16:30:57;;;;;;;;;;;21.40;33.10;;;;;;5093957;28;20011;-75
2023/01/29 16:33:26;;;;;;;;;;;21.40;33.10;;;;;;5094061;28;19941;-73
2023/01/29 16:35:52;;;;;;;;;;;21.40;33.10;;;;;;5093950;28;19927;-74
2023/01/29 16:38:23;;;;;;;;;;;21.40;33.20;;;;;;5094097;28;20293;-73
2023/01/29 16:41:03;;;;;;;;;;;21.40;33.20;;;;;;5094718;28;19931;-73
2023/01/29 16:43:44;;;;;;;;;;;21.40;33.20;;;;;;5093562;28;20382;-74
2023/01/29 16:46:29;;;;;;;;;;;21.40;33.20;;;;;;5093342;28;20007;-74
2023/01/29 16:48:55;;;;;;;;;;;21.50;33.20;;;;;;5127553;27;19920;-73
2023/01/29 16:51:29;;;;;;;;;;;21.40;33.20;;;;;;5093167;28;20264;-74
2023/01/29 16:53:57;;;;;;;;;;;21.40;33.20;;;;;;5094551;28;19919;-73
2023/01/29 16:56:24;;;;;;;;;;;21.40;33.20;;;;;;5093437;28;19926;-74
2023/01/29 16:58:51;;;;;;;;;;;21.40;33.20;;;;;;5093323;28;19924;-73
2023/01/29 17:01:17;;;;;;;;;;;21.40;33.20;;;;;;5093011;28;20339;-74
2023/01/29 17:03:42;;;;;;;;;;;21.40;33.20;;;;;;5094324;28;19931;-75
2023/01/29 17:06:11;;;;;;;;;;;21.40;33.20;;;;;;5093441;28;19924;-74